createdAt,value
2018-06-25T00:02:07.646Z,7.00
2018-06-25T00:04:36.770Z,6.37
2018-06-25T00:07:05.119Z,6.50
2018-06-25T00:09:34.358Z,7.10
2018-06-25T00:12:02.870Z,6.97
2018-06-25T00:14:31.222Z,6.73
2018-06-25T00:16:59.604Z,6.70
2018-06-25T00:19:28.280Z,7.83
2018-06-25T00:21:56.622Z,7.07
2018-06-25T00:24:25.778Z,6.60
2018-06-25T00:26:54.126Z,6.30
2018-06-25T00:29:23.141Z,6.60
2018-06-25T00:31:51.481Z,5.80
2018-06-25T00:34:19.845Z,6.53
2018-06-25T00:36:48.972Z,6.23
2018-06-25T00:39:18.058Z,7.10
2018-06-25T00:41:46.430Z,6.10
2018-06-25T00:44:15.546Z,6.23
2018-06-25T00:46:43.898Z,6.70
2018-06-25T00:49:13.005Z,7.00
2018-06-25T00:51:42.122Z,6.53
2018-06-25T00:54:10.462Z,6.87
2018-06-25T00:56:38.805Z,7.83
2018-06-25T00:59:19.257Z,7.00
2018-06-25T01:01:47.757Z,7.17
2018-06-25T01:04:16.213Z,7.37
2018-06-25T01:06:44.600Z,7.33
2018-06-25T01:09:12.954Z,8.60
2018-06-25T01:11:41.297Z,7.40
2018-06-25T01:14:09.680Z,7.40
2018-06-25T01:16:38.374Z,9.10
2018-06-25T01:19:06.737Z,8.53
2018-06-25T01:21:35.129Z,8.20
2018-06-25T01:24:04.229Z,8.93
2018-06-25T01:26:33.370Z,8.17
2018-06-25T01:29:01.724Z,8.43
2018-06-25T01:31:30.833Z,8.03
2018-06-25T01:33:59.183Z,8.73
2018-06-25T01:36:28.344Z,10.07
2018-06-25T01:38:56.697Z,8.40
2018-06-25T01:41:25.084Z,8.17
2018-06-25T01:43:53.428Z,8.90
2018-06-25T01:46:23.031Z,7.27
2018-06-25T01:48:52.262Z,8.93
2018-06-25T01:51:20.617Z,8.63
2018-06-25T01:53:49.715Z,7.73
2018-06-25T01:56:18.078Z,8.40
2018-06-25T01:58:47.197Z,8.27
2018-06-25T02:01:16.419Z,8.50
2018-06-25T02:03:44.833Z,7.40
2018-06-25T02:06:13.182Z,8.47
2018-06-25T02:08:41.541Z,8.47
2018-06-25T02:11:09.886Z,8.10
2018-06-25T02:13:39.014Z,8.73
2018-06-25T02:16:07.486Z,8.57
2018-06-25T02:18:36.086Z,8.63
2018-06-25T02:21:04.421Z,9.13
2018-06-25T02:23:32.763Z,9.43
2018-06-25T02:26:01.138Z,9.40
2018-06-25T02:28:29.526Z,10.07
2018-06-25T02:30:57.873Z,9.17
2018-06-25T02:33:26.433Z,9.97
2018-06-25T02:35:54.816Z,10.03
2018-06-25T02:38:24.046Z,10.10
2018-06-25T02:40:52.410Z,10.67
2018-06-25T02:43:20.773Z,11.27
2018-06-25T02:45:49.889Z,10.70
2018-06-25T02:48:18.251Z,10.23
2018-06-25T02:50:47.378Z,11.77
2018-06-25T02:53:15.738Z,11.13
2018-06-25T02:55:44.109Z,11.63
2018-06-25T02:58:12.454Z,9.97
2018-06-25T03:00:40.824Z,10.27
2018-06-25T03:03:09.308Z,10.77
2018-06-25T03:05:37.660Z,11.97
2018-06-25T03:08:06.039Z,11.50
2018-06-25T03:10:34.422Z,11.20
2018-06-25T03:13:02.782Z,10.47
2018-06-25T03:15:31.177Z,12.17
2018-06-25T03:17:59.530Z,11.37
2018-06-25T03:20:27.939Z,12.60
2018-06-25T03:22:56.318Z,11.10
2018-06-25T03:25:24.793Z,11.27
2018-06-25T03:27:53.170Z,12.00
2018-06-25T03:30:22.243Z,11.90
2018-06-25T03:32:50.602Z,13.60
2018-06-25T03:35:18.943Z,10.60
2018-06-25T03:37:47.291Z,12.70
2018-06-25T03:40:15.855Z,12.17
2018-06-25T03:42:44.982Z,13.87
2018-06-25T03:45:13.459Z,14.10
2018-06-25T03:47:41.815Z,13.80
2018-06-25T03:50:10.951Z,15.00
2018-06-25T03:52:39.302Z,14.87
2018-06-25T03:55:07.661Z,14.77
2018-06-25T03:57:36.802Z,14.67
2018-06-25T04:00:05.171Z,16.90
2018-06-25T04:02:33.618Z,16.40
2018-06-25T04:05:02.734Z,16.77
2018-06-25T04:07:31.086Z,16.57
2018-06-25T04:09:59.440Z,16.33
2018-06-25T04:12:27.903Z,15.97
2018-06-25T04:14:56.483Z,16.90
2018-06-25T04:17:24.833Z,15.83
2018-06-25T04:19:53.244Z,16.30
2018-06-25T04:22:21.600Z,15.57
2018-06-25T04:24:49.950Z,15.13
2018-06-25T04:27:19.073Z,14.10
2018-06-25T04:29:47.486Z,13.97
2018-06-25T04:32:15.953Z,14.50
2018-06-25T04:34:44.325Z,14.60
2018-06-25T04:37:12.714Z,13.67
2018-06-25T04:39:41.065Z,14.33
2018-06-25T04:42:09.421Z,13.33
2018-06-25T04:44:38.414Z,15.30
2018-06-25T04:47:06.777Z,14.80
2018-06-25T04:49:35.141Z,14.63
2018-06-25T04:52:03.538Z,13.83
2018-06-25T04:54:31.898Z,14.17
2018-06-25T04:57:00.424Z,14.83
2018-06-25T04:59:28.786Z,14.47
2018-06-25T05:02:01.427Z,14.23
2018-06-25T05:04:29.829Z,15.30
2018-06-25T05:06:58.271Z,15.03
2018-06-25T05:09:26.638Z,15.57
2018-06-25T05:11:54.990Z,16.27
2018-06-25T05:14:23.349Z,16.03
2018-06-25T05:16:51.902Z,14.43
2018-06-25T05:19:20.277Z,15.43
2018-06-25T05:21:48.623Z,14.13
2018-06-25T05:24:17.761Z,15.53
2018-06-25T05:26:46.133Z,15.03
2018-06-25T05:29:15.436Z,15.80
2018-06-25T05:31:43.782Z,15.30
2018-06-25T05:34:12.894Z,14.73
2018-06-25T05:36:41.261Z,15.70
2018-06-25T05:39:09.620Z,14.63
2018-06-25T05:41:38.042Z,15.60
2018-06-25T05:44:06.399Z,15.40
2018-06-25T05:46:35.537Z,14.70
2018-06-25T05:49:03.865Z,14.20
2018-06-25T05:51:32.990Z,15.30
2018-06-25T05:54:01.351Z,15.07
2018-06-25T05:56:30.478Z,14.43
2018-06-25T05:58:58.999Z,14.37
2018-06-25T06:01:27.322Z,13.83
2018-06-25T06:03:55.668Z,12.13
2018-06-25T06:06:25.006Z,12.10
2018-06-25T06:08:53.382Z,12.27
2018-06-25T06:11:21.863Z,12.20
2018-06-25T06:13:50.274Z,11.57
2018-06-25T06:16:18.592Z,11.80
2018-06-25T06:18:47.152Z,12.00
2018-06-25T06:21:15.510Z,11.23
2018-06-25T06:23:43.866Z,11.00
2018-06-25T06:26:12.238Z,11.33
2018-06-25T06:28:40.582Z,11.67
2018-06-25T06:31:08.954Z,11.47
2018-06-25T06:33:37.290Z,11.37
2018-06-25T06:36:05.654Z,11.17
2018-06-25T06:38:34.002Z,12.00
2018-06-25T06:41:02.447Z,12.03
2018-06-25T06:43:30.802Z,12.17
2018-06-25T06:45:59.165Z,10.47
2018-06-25T06:48:27.516Z,12.17
2018-06-25T06:50:55.954Z,10.93
2018-06-25T06:53:24.305Z,10.53
2018-06-25T06:55:52.687Z,10.53
2018-06-25T06:58:21.026Z,10.90
2018-06-25T07:00:49.383Z,10.43
2018-06-25T07:03:17.770Z,10.83
2018-06-25T07:05:46.125Z,11.03
2018-06-25T07:08:14.471Z,10.27
2018-06-25T07:10:43.609Z,11.10
2018-06-25T07:13:11.953Z,10.37
2018-06-25T07:15:40.406Z,9.60
2018-06-25T07:18:08.929Z,9.97
2018-06-25T07:20:37.270Z,8.60
2018-06-25T07:23:05.642Z,8.00
2018-06-25T07:25:33.996Z,8.70
2018-06-25T07:28:02.359Z,8.63
2018-06-25T07:30:30.705Z,8.43
2018-06-25T07:32:59.842Z,8.07
2018-06-25T07:35:28.185Z,8.23
2018-06-25T07:37:56.618Z,8.43
2018-06-25T07:40:24.987Z,9.10
2018-06-25T07:42:53.382Z,8.93
2018-06-25T07:45:21.709Z,8.60
2018-06-25T07:47:50.049Z,8.00
2018-06-25T07:50:18.408Z,7.53
2018-06-25T07:52:46.762Z,8.70
2018-06-25T07:55:15.113Z,8.67
2018-06-25T07:57:44.230Z,8.03
2018-06-25T08:00:12.618Z,7.97
2018-06-25T08:02:40.960Z,7.23
2018-06-25T08:05:10.088Z,6.97
2018-06-25T08:07:38.439Z,6.93
2018-06-25T08:10:08.335Z,7.63
2018-06-25T08:12:36.664Z,7.87
2018-06-25T08:15:05.151Z,6.77
2018-06-25T08:17:33.533Z,7.33
2018-06-25T08:20:01.887Z,6.70
2018-06-25T08:22:30.240Z,6.50
2018-06-25T08:24:58.666Z,7.00
2018-06-25T08:27:27.029Z,7.20
2018-06-25T08:29:55.407Z,8.10
2018-06-25T08:32:24.523Z,6.10
2018-06-25T08:34:52.865Z,5.10
2018-06-25T08:37:22.101Z,5.23
2018-06-25T08:39:50.496Z,4.97
2018-06-25T08:42:18.896Z,4.57
2018-06-25T08:44:47.321Z,4.50
2018-06-25T08:47:16.434Z,5.57
2018-06-25T08:49:44.763Z,5.73
2018-06-25T08:52:13.162Z,5.57
2018-06-25T08:54:42.385Z,5.90
2018-06-25T08:57:10.756Z,5.67
2018-06-25T08:59:39.847Z,6.00
2018-06-25T09:02:08.194Z,5.70
2018-06-25T09:04:36.547Z,6.23
2018-06-25T09:07:04.892Z,6.50
2018-06-25T09:09:34.021Z,7.20
2018-06-25T09:12:02.445Z,7.10
2018-06-25T09:14:31.566Z,6.67
2018-06-25T09:16:59.912Z,6.30
2018-06-25T09:19:29.051Z,6.00
2018-06-25T09:21:57.405Z,6.10
2018-06-25T09:24:26.605Z,6.47
2018-06-25T09:26:56.461Z,6.57
2018-06-25T09:29:24.813Z,6.20
2018-06-25T09:31:53.162Z,6.70
2018-06-25T09:34:22.283Z,6.63
2018-06-25T09:36:50.630Z,6.53
2018-06-25T09:39:19.044Z,7.03
2018-06-25T09:41:48.335Z,7.13
2018-06-25T09:44:16.617Z,9.40
2018-06-25T09:46:44.980Z,10.00
2018-06-25T09:49:14.333Z,11.80
2018-06-25T09:51:42.664Z,12.37
2018-06-25T09:54:11.803Z,12.03
2018-06-25T09:56:40.346Z,12.50
2018-06-25T09:59:08.655Z,14.43
2018-06-25T10:01:37.021Z,14.13
2018-06-25T10:04:05.374Z,14.63
2018-06-25T10:06:34.512Z,12.70
2018-06-25T10:09:02.857Z,12.33
2018-06-25T10:11:31.974Z,12.03
2018-06-25T10:14:00.377Z,12.23
2018-06-25T10:16:28.732Z,11.50
2018-06-25T10:18:57.119Z,11.83
2018-06-25T10:21:25.810Z,12.10
2018-06-25T10:23:54.071Z,13.40
2018-06-25T10:26:22.481Z,12.93
2018-06-25T10:28:50.846Z,12.67
2018-06-25T10:31:19.201Z,13.13
2018-06-25T10:33:47.601Z,12.67
2018-06-25T10:36:16.067Z,19.93
2018-06-25T10:38:44.411Z,12.47
2018-06-25T10:41:12.782Z,12.23
2018-06-25T10:43:41.166Z,11.57
2018-06-25T10:46:09.796Z,10.70
2018-06-25T10:48:39.623Z,9.97
2018-06-25T10:51:08.758Z,9.57
2018-06-25T10:53:37.211Z,9.07
2018-06-25T10:56:05.591Z,9.10
2018-06-25T10:58:33.956Z,7.00
2018-06-25T11:01:02.466Z,7.13
2018-06-25T11:03:30.814Z,7.30
2018-06-25T11:05:59.472Z,7.10
2018-06-25T11:08:27.583Z,6.77
2018-06-25T11:10:56.063Z,7.67
2018-06-25T11:13:24.420Z,6.87
2018-06-25T11:15:53.517Z,7.67
2018-06-25T11:18:22.117Z,7.47
2018-06-25T11:20:50.456Z,6.80
2018-06-25T11:23:18.809Z,6.20
2018-06-25T11:25:47.173Z,6.67
2018-06-25T11:28:15.629Z,6.00
2018-06-25T11:30:44.171Z,6.63
2018-06-25T11:33:12.619Z,6.83
2018-06-25T11:35:40.970Z,7.27
2018-06-25T11:38:09.313Z,6.23
2018-06-25T11:40:37.667Z,6.43
2018-06-25T11:43:06.025Z,6.00
2018-06-25T11:45:34.398Z,5.77
2018-06-25T11:48:02.877Z,6.43
2018-06-25T11:50:31.297Z,6.27
2018-06-25T11:52:59.652Z,5.80
2018-06-25T11:55:28.033Z,5.70
2018-06-25T11:57:57.200Z,5.90
2018-06-25T12:00:25.553Z,5.77
2018-06-25T12:02:54.159Z,5.37
2018-06-25T12:05:22.509Z,6.57
2018-06-25T12:07:50.880Z,5.70
2018-06-25T12:10:19.273Z,6.20
2018-06-25T12:12:48.390Z,5.73
2018-06-25T12:15:17.494Z,5.73
2018-06-25T12:17:46.103Z,5.60
2018-06-25T12:20:14.565Z,5.43
2018-06-25T12:22:42.935Z,4.97
2018-06-25T12:25:12.127Z,5.30
2018-06-25T12:27:40.551Z,6.27
2018-06-25T12:30:08.902Z,5.53
2018-06-25T12:32:37.255Z,5.80
2018-06-25T12:35:06.510Z,6.07
2018-06-25T12:37:34.906Z,6.20
2018-06-25T12:40:03.347Z,6.30
2018-06-25T12:42:31.702Z,6.20
2018-06-25T12:45:00.825Z,5.93
2018-06-25T12:47:29.211Z,6.37
2018-06-25T12:49:57.569Z,5.37
2018-06-25T12:52:26.677Z,6.50
2018-06-25T12:54:55.126Z,6.90
2018-06-25T12:57:24.442Z,6.07
2018-06-25T12:59:52.828Z,5.70
2018-06-25T13:02:21.248Z,5.37
2018-06-25T13:04:49.599Z,5.10
2018-06-25T13:07:17.951Z,5.60
2018-06-25T13:09:47.074Z,5.83
2018-06-25T13:12:15.421Z,5.60
2018-06-25T13:14:44.560Z,5.10
2018-06-25T13:17:12.955Z,5.40
2018-06-25T13:19:41.482Z,5.63
2018-06-25T13:22:09.878Z,4.80
2018-06-25T13:24:38.417Z,5.77
2018-06-25T13:27:06.779Z,5.23
2018-06-25T13:29:35.869Z,5.20
2018-06-25T13:32:05.071Z,5.40
2018-06-25T13:34:33.424Z,6.20
2018-06-25T13:37:01.890Z,5.87
2018-06-25T13:39:31.130Z,5.93
2018-06-25T13:41:59.481Z,5.13
2018-06-25T13:44:27.964Z,5.37
2018-06-25T13:46:56.403Z,5.13
2018-06-25T13:49:24.770Z,5.47
2018-06-25T13:51:53.127Z,6.13
2018-06-25T13:54:21.489Z,5.63
2018-06-25T13:56:50.720Z,5.87
2018-06-25T13:59:19.119Z,6.10
2018-06-25T14:01:47.497Z,6.30
2018-06-25T14:04:16.023Z,5.87
2018-06-25T14:06:44.389Z,5.73
2018-06-25T14:09:12.746Z,5.90
2018-06-25T14:11:41.094Z,6.33
2018-06-25T14:14:09.553Z,5.67
2018-06-25T14:16:37.985Z,5.90
2018-06-25T14:19:06.421Z,5.70
2018-06-25T14:21:34.871Z,5.97
2018-06-25T14:24:03.220Z,5.57
2018-06-25T14:26:31.551Z,5.47
2018-06-25T14:28:59.939Z,5.77
2018-06-25T14:31:28.283Z,6.00
2018-06-25T14:33:57.409Z,5.63
2018-06-25T14:36:25.830Z,5.90
2018-06-25T14:38:54.198Z,5.53
2018-06-25T14:41:22.576Z,5.40
2018-06-25T14:43:51.018Z,4.97
2018-06-25T14:46:19.376Z,5.30
2018-06-25T14:48:47.723Z,5.47
2018-06-25T14:51:16.983Z,5.60
2018-06-25T14:53:45.342Z,6.20
2018-06-25T14:56:14.317Z,6.00
2018-06-25T14:58:43.421Z,5.67
2018-06-25T15:01:11.790Z,5.90
2018-06-25T15:03:40.156Z,5.93
2018-06-25T15:06:08.572Z,5.90
2018-06-25T15:08:36.935Z,4.83
2018-06-25T15:11:06.074Z,4.90
2018-06-25T15:13:34.417Z,5.83
2018-06-25T15:16:06.568Z,4.87
2018-06-25T15:18:35.027Z,5.73
2018-06-25T15:21:03.429Z,5.60
2018-06-25T15:23:31.860Z,5.30
2018-06-25T15:26:00.295Z,4.80
2018-06-25T15:28:28.744Z,5.10
2018-06-25T15:30:57.258Z,4.40
2018-06-25T15:33:26.487Z,5.73
2018-06-25T15:35:55.708Z,4.80
2018-06-25T15:38:24.995Z,5.83
2018-06-25T15:40:53.477Z,6.10
2018-06-25T15:43:21.813Z,5.10
2018-06-25T15:45:50.173Z,5.67
2018-06-25T15:48:18.621Z,16.30
2018-06-25T15:50:47.315Z,5.00
2018-06-25T15:53:15.649Z,11.33
2018-06-25T15:55:44.792Z,5.70
2018-06-25T15:58:13.190Z,5.60
2018-06-25T16:00:41.554Z,5.27
2018-06-25T16:03:09.934Z,5.43
2018-06-25T16:05:38.280Z,5.00
2018-06-25T16:08:06.694Z,5.23
2018-06-25T16:10:35.265Z,5.87
2018-06-25T16:13:03.620Z,5.30
2018-06-25T16:15:32.046Z,5.30
2018-06-25T16:18:00.401Z,5.40
2018-06-25T16:20:28.757Z,5.68
2018-06-25T16:22:57.320Z,5.60
2018-06-25T16:25:26.618Z,5.10
2018-06-25T16:27:55.867Z,5.90
2018-06-25T16:30:24.285Z,5.53
2018-06-25T16:32:52.802Z,4.95
2018-06-25T16:35:21.307Z,5.43
2018-06-25T16:37:50.107Z,5.43
2018-06-25T16:40:18.562Z,4.90
2018-06-25T16:42:47.106Z,5.25
2018-06-25T16:45:15.461Z,4.87
2018-06-25T16:47:43.884Z,5.30
2018-06-25T16:50:13.190Z,4.87
2018-06-25T16:52:42.358Z,4.80
2018-06-25T16:55:10.802Z,4.70
2018-06-25T16:57:39.673Z,5.18
2018-06-25T17:00:08.040Z,4.40
2018-06-25T17:02:37.345Z,4.93
2018-06-25T17:05:07.361Z,4.80
2018-06-25T17:07:36.605Z,4.37
2018-06-25T17:10:04.999Z,4.30
2018-06-25T17:12:33.489Z,4.63
2018-06-25T17:15:01.928Z,4.80
2018-06-25T17:17:30.411Z,4.47
2018-06-25T17:19:58.774Z,5.30
2018-06-25T17:22:27.171Z,4.90
2018-06-25T17:24:55.526Z,4.90
2018-06-25T17:27:24.526Z,5.07
2018-06-25T17:29:52.917Z,4.60
2018-06-25T17:32:21.589Z,4.83
2018-06-25T17:34:50.080Z,5.53
2018-06-25T17:37:18.551Z,5.43
2018-06-25T17:39:46.920Z,6.10
2018-06-25T17:42:16.040Z,5.57
2018-06-25T17:44:44.390Z,6.10
2018-06-25T17:47:13.542Z,5.30
2018-06-25T17:49:41.891Z,5.50
2018-06-25T17:52:10.271Z,6.27
2018-06-25T17:54:39.131Z,6.57
2018-06-25T17:57:08.348Z,5.80
2018-06-25T17:59:36.808Z,5.57
2018-06-25T18:02:05.169Z,6.23
2018-06-25T18:04:33.688Z,5.83
2018-06-25T18:07:02.050Z,5.50
2018-06-25T18:09:30.403Z,6.50
2018-06-25T18:11:58.857Z,6.33
2018-06-25T18:14:27.251Z,5.87
2018-06-25T18:16:55.594Z,5.77
2018-06-25T18:19:23.965Z,5.80
2018-06-25T18:21:52.290Z,6.17
2018-06-25T18:24:20.659Z,6.40
2018-06-25T18:26:49.046Z,5.87
2018-06-25T18:29:17.412Z,5.13
2018-06-25T18:31:45.869Z,5.97
2018-06-25T18:34:14.354Z,5.63
2018-06-25T18:36:43.570Z,5.67
2018-06-25T18:39:12.022Z,9.07
2018-06-25T18:41:40.591Z,5.67
2018-06-25T18:44:09.021Z,5.67
2018-06-25T18:46:37.376Z,6.10
2018-06-25T18:49:05.734Z,5.50
2018-06-25T18:51:34.848Z,6.00
2018-06-25T18:54:03.330Z,6.00
2018-06-25T18:56:31.686Z,6.40
2018-06-25T18:59:00.803Z,6.30
2018-06-25T19:01:29.178Z,6.13
2018-06-25T19:03:58.310Z,7.23
2018-06-25T19:06:26.692Z,6.73
2018-06-25T19:08:55.089Z,11.70
2018-06-25T19:11:23.450Z,10.13
2018-06-25T19:13:51.838Z,6.77
2018-06-25T19:16:20.219Z,7.40
2018-06-25T19:18:48.626Z,7.63
2018-06-25T19:21:17.517Z,7.10
2018-06-25T19:23:45.895Z,7.43
2018-06-25T19:26:14.276Z,7.00
2018-06-25T19:28:42.703Z,7.07
2018-06-25T19:31:11.072Z,9.90
2018-06-25T19:33:39.593Z,12.43
2018-06-25T19:36:08.905Z,15.73
2018-06-25T19:38:37.367Z,15.07
2018-06-25T19:41:05.780Z,11.40
2018-06-25T19:43:34.260Z,11.07
2018-06-25T19:46:02.809Z,13.17
2018-06-25T19:48:31.265Z,13.27
2018-06-25T19:50:59.640Z,11.50
2018-06-25T19:53:28.150Z,13.03
2018-06-25T19:55:56.550Z,11.57
2018-06-25T19:58:24.906Z,9.40
2018-06-25T20:00:53.304Z,8.73
2018-06-25T20:03:21.800Z,7.57
2018-06-25T20:05:50.197Z,6.90
2018-06-25T20:08:18.554Z,7.60
2018-06-25T20:10:46.852Z,6.93
2018-06-25T20:13:15.318Z,8.53
2018-06-25T20:15:43.775Z,7.73
2018-06-25T20:18:12.075Z,8.43
2018-06-25T20:20:40.419Z,7.93
2018-06-25T20:23:08.796Z,8.67
2018-06-25T20:25:37.146Z,8.80
2018-06-25T20:28:06.308Z,9.00
2018-06-25T20:30:35.411Z,8.43
2018-06-25T20:33:03.856Z,9.13
2018-06-25T20:35:36.309Z,9.37
2018-06-25T20:38:05.713Z,8.60
2018-06-25T20:40:34.079Z,9.43
2018-06-25T20:43:03.199Z,9.10
2018-06-25T20:45:32.475Z,8.47
2018-06-25T20:48:00.882Z,8.73
2018-06-25T20:50:29.233Z,7.80
2018-06-25T20:52:58.350Z,8.37
2018-06-25T20:55:26.712Z,8.50
2018-06-25T20:57:55.887Z,8.07
2018-06-25T21:00:24.235Z,8.03
2018-06-25T21:02:52.587Z,8.10
2018-06-25T21:05:21.037Z,8.53
2018-06-25T21:07:50.191Z,8.50
2018-06-25T21:10:18.542Z,8.90
2018-06-25T21:12:46.961Z,9.37
2018-06-25T21:15:15.358Z,8.80
2018-06-25T21:17:43.811Z,10.03
2018-06-25T21:20:12.165Z,9.67
2018-06-25T21:22:41.125Z,9.40
2018-06-25T21:25:09.561Z,9.53
2018-06-25T21:27:38.798Z,9.53
2018-06-25T21:30:07.407Z,10.40
2018-06-25T21:32:35.774Z,10.33
2018-06-25T21:35:04.297Z,11.27
2018-06-25T21:37:32.659Z,11.80
2018-06-25T21:40:01.001Z,12.47
2018-06-25T21:42:29.360Z,11.97
2018-06-25T21:44:57.739Z,12.27
2018-06-25T21:47:26.103Z,11.97
2018-06-25T21:49:54.539Z,13.37
2018-06-25T21:52:22.889Z,12.93
2018-06-25T21:54:51.664Z,12.73
2018-06-25T21:57:20.335Z,13.87
2018-06-25T21:59:48.690Z,14.37
2018-06-25T22:02:17.153Z,13.10
2018-06-25T22:04:46.315Z,12.87
2018-06-25T22:07:14.692Z,13.10
2018-06-25T22:09:43.134Z,14.37
2018-06-25T22:12:11.839Z,16.47
2018-06-25T22:14:41.115Z,16.20
2018-06-25T22:17:09.512Z,17.20
2018-06-25T22:19:37.962Z,14.97
2018-06-25T22:22:07.122Z,16.47
2018-06-25T22:24:35.673Z,15.83
2018-06-25T22:27:04.045Z,15.07
2018-06-25T22:29:32.638Z,14.90
2018-06-25T22:32:00.986Z,16.40
2018-06-25T22:34:29.405Z,15.57
2018-06-25T22:36:57.941Z,15.13
2018-06-25T22:39:27.102Z,15.43
2018-06-25T22:41:55.554Z,14.93
2018-06-25T22:44:23.936Z,14.90
2018-06-25T22:46:52.294Z,14.30
2018-06-25T22:49:20.650Z,13.30
2018-06-25T22:51:49.791Z,14.33
2018-06-25T22:54:18.154Z,14.37
2018-06-25T22:56:46.659Z,15.20
2018-06-25T22:59:15.013Z,15.20
2018-06-25T23:01:43.508Z,15.73
2018-06-25T23:04:12.005Z,15.47
2018-06-25T23:06:40.452Z,16.13
2018-06-25T23:09:08.926Z,16.13
2018-06-25T23:11:38.795Z,16.33
2018-06-25T23:14:07.236Z,18.07
2018-06-25T23:16:36.459Z,18.40
2018-06-25T23:19:05.050Z,17.90
2018-06-25T23:21:33.601Z,17.10
2018-06-25T23:24:02.019Z,16.30
2018-06-25T23:26:30.392Z,16.97
2018-06-25T23:28:58.783Z,17.53
2018-06-25T23:31:27.216Z,16.63
2018-06-25T23:33:56.506Z,15.40
2018-06-25T23:36:25.049Z,16.20
2018-06-25T23:38:53.397Z,16.50
2018-06-25T23:41:21.951Z,15.97
2018-06-25T23:43:50.323Z,15.43
2018-06-25T23:46:19.541Z,16.63
2018-06-25T23:48:47.999Z,16.10
2018-06-25T23:51:16.638Z,14.57
2018-06-25T23:53:45.185Z,14.50
2018-06-25T23:56:13.623Z,14.17
2018-06-25T23:58:42.012Z,13.50
